createdAt,value
2022-07-31T00:00:53.390Z,17.50
2022-07-31T00:05:55.411Z,17.40
2022-07-31T00:10:57.558Z,17.40
2022-07-31T00:15:59.405Z,17.40
2022-07-31T00:21:02.655Z,17.40
2022-07-31T00:26:04.528Z,17.30
2022-07-31T00:31:07.529Z,17.30
2022-07-31T00:36:09.466Z,17.20
2022-07-31T00:41:11.451Z,17.20
2022-07-31T00:46:14.249Z,17.20
2022-07-31T00:51:16.893Z,17.10
2022-07-31T00:56:18.713Z,17.10
2022-07-31T01:01:21.252Z,17.00
2022-07-31T01:06:23.358Z,17.00
2022-07-31T01:11:36.053Z,17.00
2022-07-31T01:16:43.298Z,17.10
2022-07-31T01:22:33.851Z,17.00
2022-07-31T01:27:49.536Z,17.10
2022-07-31T01:32:52.387Z,17.10
2022-07-31T01:37:58.441Z,17.10
2022-07-31T01:43:05.678Z,17.10
2022-07-31T01:48:10.631Z,17.00
2022-07-31T01:53:18.773Z,17.00
2022-07-31T01:58:21.834Z,17.00
2022-07-31T02:03:42.827Z,17.00
2022-07-31T02:08:47.842Z,16.90
2022-07-31T02:13:50.489Z,16.90
2022-07-31T02:18:54.141Z,16.90
2022-07-31T02:23:57.166Z,16.80
2022-07-31T02:28:59.910Z,16.80
2022-07-31T02:34:01.902Z,16.70
2022-07-31T02:39:04.172Z,16.70
2022-07-31T02:44:06.461Z,16.70
2022-07-31T02:49:09.354Z,16.80
2022-07-31T02:54:11.403Z,16.70
2022-07-31T02:59:13.241Z,16.70
2022-07-31T03:04:15.379Z,16.70
2022-07-31T03:09:17.358Z,16.70
2022-07-31T03:14:19.524Z,16.70
2022-07-31T03:19:23.043Z,16.70
2022-07-31T03:24:25.848Z,16.80
2022-07-31T03:29:42.548Z,16.80
2022-07-31T03:34:46.215Z,16.90
2022-07-31T03:39:48.163Z,16.90
2022-07-31T03:44:50.208Z,17.00
2022-07-31T03:49:52.105Z,17.00
2022-07-31T03:54:54.365Z,17.00
2022-07-31T03:59:58.076Z,17.10
2022-07-31T04:04:59.990Z,17.10
2022-07-31T04:10:02.910Z,17.20
2022-07-31T04:15:05.405Z,17.20
2022-07-31T04:20:08.319Z,17.20
2022-07-31T04:25:10.227Z,17.30
2022-07-31T04:30:12.461Z,17.50
2022-07-31T04:35:14.770Z,17.50
2022-07-31T04:40:17.185Z,17.60
2022-07-31T04:45:19.057Z,17.60
2022-07-31T04:50:21.087Z,17.70
2022-07-31T04:55:24.249Z,17.80
2022-07-31T05:00:26.965Z,17.90
2022-07-31T05:05:28.874Z,17.90
2022-07-31T05:10:49.460Z,18.00
2022-07-31T05:15:51.286Z,18.10
2022-07-31T05:20:53.312Z,18.20
2022-07-31T05:25:55.350Z,18.30
2022-07-31T05:30:57.674Z,18.40
2022-07-31T05:36:00.710Z,18.70
2022-07-31T05:41:02.662Z,19.30
2022-07-31T05:46:05.610Z,19.90
2022-07-31T05:51:12.090Z,19.80
2022-07-31T05:56:23.450Z,19.60
2022-07-31T06:01:25.293Z,19.30
2022-07-31T06:06:27.215Z,19.20
2022-07-31T06:11:29.135Z,19.20
2022-07-31T06:16:30.954Z,19.30
2022-07-31T06:21:32.796Z,19.50
2022-07-31T06:26:34.634Z,20.00
2022-07-31T06:31:36.517Z,20.60
2022-07-31T06:36:38.355Z,21.10
2022-07-31T06:41:48.946Z,21.50
2022-07-31T06:46:51.986Z,21.70
2022-07-31T06:51:53.823Z,21.80
2022-07-31T06:56:55.690Z,22.20
2022-07-31T07:01:57.570Z,22.40
2022-07-31T07:06:59.429Z,22.40
2022-07-31T07:12:01.480Z,22.80
2022-07-31T07:17:04.879Z,23.10
2022-07-31T07:22:07.065Z,23.50
2022-07-31T07:27:27.493Z,23.90
2022-07-31T07:32:29.402Z,24.40
2022-07-31T07:37:31.282Z,24.50
2022-07-31T07:43:09.458Z,24.60
2022-07-31T07:48:12.416Z,24.80
2022-07-31T07:53:14.454Z,25.00
2022-07-31T07:58:17.345Z,25.30
2022-07-31T08:03:48.967Z,25.80
2022-07-31T08:08:41.096Z,26.20
2022-07-31T08:13:46.599Z,26.20
2022-07-31T08:18:54.909Z,26.10
2022-07-31T08:23:56.781Z,26.40
2022-07-31T08:28:58.625Z,26.60
2022-07-31T08:34:07.461Z,26.80
2022-07-31T08:39:09.403Z,26.60
2022-07-31T08:44:27.151Z,26.90
2022-07-31T08:49:37.738Z,27.00
2022-07-31T08:54:43.161Z,27.00
2022-07-31T09:00:19.895Z,26.80
2022-07-31T09:05:22.728Z,26.70
2022-07-31T09:10:27.118Z,26.70
2022-07-31T09:15:31.000Z,26.90
2022-07-31T09:20:32.881Z,27.20
2022-07-31T09:25:34.853Z,27.30
2022-07-31T09:31:07.636Z,27.20
2022-07-31T09:36:09.939Z,27.10
2022-07-31T09:41:53.622Z,27.00
2022-07-31T09:46:53.483Z,26.90
2022-07-31T09:51:55.372Z,27.50
2022-07-31T09:56:58.006Z,27.80
2022-07-31T10:02:01.228Z,27.80
2022-07-31T10:07:03.810Z,27.90
2022-07-31T10:12:07.459Z,27.80
2022-07-31T10:17:10.507Z,28.10
2022-07-31T10:22:12.730Z,28.10
2022-07-31T10:27:16.891Z,27.60
2022-07-31T10:32:19.556Z,27.10
2022-07-31T10:37:48.681Z,26.80
2022-07-31T10:43:20.566Z,27.30
2022-07-31T10:48:23.531Z,28.30
2022-07-31T10:53:50.452Z,28.80
2022-07-31T10:58:52.269Z,29.10
2022-07-31T11:04:00.485Z,28.80
2022-07-31T11:09:02.370Z,29.20
2022-07-31T11:14:04.327Z,29.10
2022-07-31T11:19:09.646Z,29.30
2022-07-31T11:24:19.517Z,29.20
2022-07-31T11:29:59.964Z,29.20
2022-07-31T11:35:00.726Z,29.00
2022-07-31T11:40:05.925Z,29.10
2022-07-31T11:45:12.533Z,29.40
2022-07-31T11:50:15.692Z,29.30
2022-07-31T11:55:17.581Z,29.40
2022-07-31T12:00:27.074Z,29.30
2022-07-31T12:05:44.173Z,29.20
2022-07-31T12:10:46.802Z,29.10
2022-07-31T12:15:59.520Z,29.20
2022-07-31T12:21:04.941Z,29.40
2022-07-31T12:26:07.061Z,29.40
2022-07-31T12:31:09.084Z,29.50
2022-07-31T12:36:15.603Z,29.60
2022-07-31T12:41:17.575Z,29.50
2022-07-31T12:46:33.504Z,29.20
2022-07-31T12:51:45.039Z,29.10
2022-07-31T12:56:48.596Z,29.10
2022-07-31T13:01:50.571Z,28.70
2022-07-31T13:06:52.485Z,28.40
2022-07-31T13:11:57.782Z,28.00
2022-07-31T13:17:01.280Z,27.50
2022-07-31T13:22:03.341Z,27.70
2022-07-31T13:27:05.671Z,28.10
2022-07-31T13:32:08.936Z,27.80
2022-07-31T13:37:10.838Z,27.70
2022-07-31T13:42:12.662Z,28.10
2022-07-31T13:47:16.702Z,28.50
2022-07-31T13:52:18.760Z,28.80
2022-07-31T13:57:20.595Z,28.70
2022-07-31T14:02:22.469Z,28.30
2022-07-31T14:07:24.323Z,28.20
2022-07-31T14:12:46.262Z,28.50
2022-07-31T14:17:48.227Z,29.00
2022-07-31T14:22:50.104Z,29.00
2022-07-31T14:27:54.099Z,28.70
2022-07-31T14:32:55.935Z,28.70
2022-07-31T14:38:02.041Z,29.00
2022-07-31T14:43:05.733Z,29.10
2022-07-31T14:48:07.630Z,29.40
2022-07-31T14:53:10.987Z,28.90
2022-07-31T14:58:14.882Z,28.50
2022-07-31T15:03:16.734Z,28.50
2022-07-31T15:08:18.564Z,28.60
2022-07-31T15:13:20.418Z,28.50
2022-07-31T15:18:25.749Z,28.10
2022-07-31T15:23:27.850Z,27.70
2022-07-31T15:28:37.903Z,27.80
2022-07-31T15:33:39.793Z,28.00
2022-07-31T15:38:43.126Z,28.10
2022-07-31T15:43:44.971Z,27.90
2022-07-31T15:48:46.874Z,27.70
2022-07-31T15:53:48.895Z,27.50
2022-07-31T15:58:53.773Z,27.60
2022-07-31T16:03:55.890Z,27.60
2022-07-31T16:08:59.769Z,27.40
2022-07-31T16:14:01.663Z,27.10
2022-07-31T16:19:04.166Z,26.80
2022-07-31T16:25:15.363Z,26.60
2022-07-31T16:30:17.185Z,26.50
2022-07-31T16:35:19.163Z,26.50
2022-07-31T16:40:30.316Z,26.60
2022-07-31T16:45:35.759Z,26.50
2022-07-31T16:50:37.607Z,26.40
2022-07-31T16:55:46.144Z,26.40
2022-07-31T17:01:03.958Z,26.20
2022-07-31T17:06:06.161Z,26.00
2022-07-31T17:11:08.114Z,25.90
2022-07-31T17:16:10.106Z,25.80
2022-07-31T17:21:12.026Z,25.70
2022-07-31T17:26:21.435Z,25.60
2022-07-31T17:31:24.073Z,25.50
2022-07-31T17:36:25.915Z,25.30
2022-07-31T17:41:27.795Z,25.20
2022-07-31T17:46:36.578Z,25.20
2022-07-31T17:51:59.345Z,25.10
2022-07-31T17:57:02.534Z,25.10
2022-07-31T18:02:04.997Z,24.90
2022-07-31T18:07:07.728Z,24.80
2022-07-31T18:12:14.855Z,24.60
2022-07-31T18:17:19.349Z,24.50
2022-07-31T18:22:21.211Z,24.30
2022-07-31T18:27:23.207Z,24.20
2022-07-31T18:32:25.988Z,24.00
2022-07-31T18:37:29.182Z,23.90
2022-07-31T18:42:31.437Z,23.70
2022-07-31T18:47:33.895Z,23.60
2022-07-31T18:52:35.741Z,23.50
2022-07-31T18:57:37.600Z,23.40
2022-07-31T19:02:39.448Z,23.20
2022-07-31T19:07:41.346Z,23.20
2022-07-31T19:12:43.336Z,23.10
2022-07-31T19:17:45.338Z,23.00
2022-07-31T19:22:47.544Z,23.00
2022-07-31T19:27:50.513Z,22.90
2022-07-31T19:32:52.953Z,23.00
2022-07-31T19:37:59.622Z,22.90
2022-07-31T19:43:01.674Z,22.90
2022-07-31T19:48:03.703Z,22.90
2022-07-31T19:53:05.661Z,22.80
2022-07-31T19:58:07.763Z,22.70
2022-07-31T20:03:09.660Z,22.60
2022-07-31T20:08:11.610Z,22.60
2022-07-31T20:13:13.462Z,22.50
2022-07-31T20:18:26.740Z,22.50
2022-07-31T20:23:31.027Z,22.50
2022-07-31T20:28:33.244Z,22.40
2022-07-31T20:33:35.139Z,22.30
2022-07-31T20:38:37.510Z,22.20
2022-07-31T20:43:39.345Z,22.10
2022-07-31T20:48:41.191Z,22.00
2022-07-31T20:53:44.047Z,22.00
2022-07-31T20:58:51.194Z,21.90
2022-07-31T21:03:54.963Z,21.90
2022-07-31T21:08:56.806Z,21.80
2022-07-31T21:14:00.028Z,21.70
2022-07-31T21:19:01.899Z,21.70
2022-07-31T21:24:04.198Z,21.60
2022-07-31T21:29:09.097Z,21.30
2022-07-31T21:34:11.417Z,21.10
2022-07-31T21:39:19.129Z,20.90
2022-07-31T21:44:21.197Z,20.80
2022-07-31T21:49:23.337Z,20.60
2022-07-31T21:54:25.232Z,20.40
2022-07-31T21:59:28.266Z,20.30
2022-07-31T22:04:34.863Z,20.20
2022-07-31T22:09:36.916Z,20.00
2022-07-31T22:14:38.842Z,20.10
2022-07-31T22:19:47.165Z,20.10
2022-07-31T22:24:49.659Z,20.20
2022-07-31T22:29:51.826Z,20.30
2022-07-31T22:34:53.721Z,20.30
2022-07-31T22:39:55.872Z,20.10
2022-07-31T22:44:58.234Z,19.90
2022-07-31T22:50:00.394Z,19.80
2022-07-31T22:55:03.230Z,19.70
2022-07-31T23:00:07.496Z,19.60
2022-07-31T23:05:10.216Z,19.50
2022-07-31T23:10:12.800Z,19.50
2022-07-31T23:15:14.769Z,19.50
2022-07-31T23:20:16.807Z,19.30
2022-07-31T23:25:20.754Z,19.30
2022-07-31T23:30:24.184Z,19.20
2022-07-31T23:35:26.014Z,19.10
2022-07-31T23:40:27.891Z,19.00
2022-07-31T23:45:29.761Z,18.90
2022-07-31T23:50:33.047Z,18.80
2022-07-31T23:55:35.359Z,18.80
